createdAt,value
2019-04-06T00:00:13.411Z,18.17
2019-04-06T00:02:42.059Z,19.77
2019-04-06T00:05:11.412Z,19.30
2019-04-06T00:07:40.224Z,17.53
2019-04-06T00:10:09.591Z,17.10
2019-04-06T00:12:38.421Z,19.07
2019-04-06T00:15:08.270Z,20.03
2019-04-06T00:17:37.071Z,19.60
2019-04-06T00:20:07.038Z,19.87
2019-04-06T00:22:35.774Z,18.80
2019-04-06T00:25:06.135Z,20.50
2019-04-06T00:27:35.048Z,20.23
2019-04-06T00:30:05.207Z,21.53
2019-04-06T00:32:38.224Z,22.30
2019-04-06T00:35:07.241Z,22.47
2019-04-06T00:37:36.060Z,21.73
2019-04-06T00:40:06.203Z,23.80
2019-04-06T00:42:34.968Z,24.80
2019-04-06T00:45:04.140Z,24.17
2019-04-06T00:47:32.893Z,22.17
2019-04-06T00:50:01.793Z,22.77
2019-04-06T00:52:30.589Z,22.30
2019-04-06T00:54:59.272Z,22.67
2019-04-06T00:57:28.102Z,22.77
2019-04-06T00:59:56.911Z,23.90
2019-04-06T01:02:25.740Z,22.80
2019-04-06T01:04:54.505Z,22.13
2019-04-06T01:07:23.532Z,21.77
2019-04-06T01:09:52.415Z,22.07
2019-04-06T01:12:21.203Z,21.40
2019-04-06T01:14:49.995Z,22.67
2019-04-06T01:17:18.694Z,23.80
2019-04-06T01:19:47.473Z,24.07
2019-04-06T01:22:16.315Z,23.87
2019-04-06T01:24:45.109Z,23.50
2019-04-06T01:27:13.846Z,24.83
2019-04-06T01:29:42.687Z,25.57
2019-04-06T01:32:11.431Z,24.30
2019-04-06T01:34:40.115Z,25.60
2019-04-06T01:37:08.952Z,26.23
2019-04-06T01:39:37.718Z,24.87
2019-04-06T01:42:06.437Z,24.13
2019-04-06T01:44:35.322Z,23.87
2019-04-06T01:47:04.054Z,25.03
2019-04-06T01:49:32.837Z,24.80
2019-04-06T01:52:01.700Z,25.80
2019-04-06T01:54:30.391Z,24.00
2019-04-06T01:56:59.177Z,24.73
2019-04-06T01:59:28.058Z,23.67
2019-04-06T02:02:01.079Z,24.77
2019-04-06T02:04:29.952Z,25.33
2019-04-06T02:06:58.738Z,23.97
2019-04-06T02:09:27.442Z,23.63
2019-04-06T02:11:56.185Z,24.80
2019-04-06T02:14:25.144Z,23.97
2019-04-06T02:16:53.924Z,23.10
2019-04-06T02:19:22.655Z,25.97
2019-04-06T02:21:51.427Z,24.97
2019-04-06T02:24:20.228Z,24.87
2019-04-06T02:26:48.870Z,25.20
2019-04-06T02:29:17.571Z,25.17
2019-04-06T02:31:53.682Z,25.80
2019-04-06T02:34:26.859Z,25.93
2019-04-06T02:36:57.147Z,25.90
2019-04-06T02:39:33.065Z,25.83
2019-04-06T02:42:03.415Z,26.33
2019-04-06T02:44:32.249Z,26.60
2019-04-06T02:47:01.040Z,27.47
2019-04-06T02:49:29.670Z,26.23
2019-04-06T02:51:58.475Z,27.43
2019-04-06T02:54:27.229Z,27.17
2019-04-06T02:56:55.932Z,27.63
2019-04-06T02:59:24.741Z,25.57
2019-04-06T03:01:53.450Z,26.37
2019-04-06T03:04:22.253Z,25.67
2019-04-06T03:06:51.098Z,27.63
2019-04-06T03:09:19.927Z,27.90
2019-04-06T03:11:48.851Z,26.70
2019-04-06T03:14:17.652Z,27.80
2019-04-06T03:16:46.381Z,27.30
2019-04-06T03:19:15.280Z,26.67
2019-04-06T03:21:43.926Z,28.20
2019-04-06T03:24:12.792Z,27.37
2019-04-06T03:26:41.524Z,27.47
2019-04-06T03:29:10.252Z,28.13
2019-04-06T03:31:39.368Z,26.60
2019-04-06T03:34:08.556Z,26.67
2019-04-06T03:36:37.327Z,28.80
2019-04-06T03:39:07.101Z,28.57
2019-04-06T03:41:35.766Z,27.70
2019-04-06T03:44:04.578Z,26.77
2019-04-06T03:46:33.330Z,27.37
2019-04-06T03:49:02.209Z,28.60
2019-04-06T03:51:30.924Z,27.07
2019-04-06T03:53:59.860Z,27.03
2019-04-06T03:56:28.719Z,26.50
2019-04-06T03:58:57.571Z,26.20
2019-04-06T04:01:26.448Z,25.57
2019-04-06T04:03:55.176Z,25.83
2019-04-06T04:06:23.892Z,25.40
2019-04-06T04:08:52.849Z,27.23
2019-04-06T04:11:21.644Z,39.57
2019-04-06T04:13:50.404Z,35.43
2019-04-06T04:16:19.256Z,36.97
2019-04-06T04:18:48.002Z,36.87
2019-04-06T04:21:16.826Z,47.17
2019-04-06T04:23:45.562Z,114.50
2019-04-06T04:26:14.414Z,85.73
2019-04-06T04:28:43.261Z,74.60
2019-04-06T04:31:12.076Z,42.67
2019-04-06T04:33:40.758Z,53.13
2019-04-06T04:36:09.546Z,60.87
2019-04-06T04:38:38.301Z,43.30
2019-04-06T04:41:07.156Z,47.57
2019-04-06T04:43:35.843Z,49.93
2019-04-06T04:46:04.671Z,45.93
2019-04-06T04:48:33.391Z,40.37
2019-04-06T04:51:02.223Z,35.03
2019-04-06T04:53:30.903Z,34.03
2019-04-06T04:55:59.568Z,34.33
2019-04-06T04:58:28.276Z,32.90
2019-04-06T05:00:57.090Z,29.27
2019-04-06T05:03:25.736Z,31.27
2019-04-06T05:05:54.520Z,32.20
2019-04-06T05:08:23.280Z,34.70
2019-04-06T05:10:51.994Z,36.43
2019-04-06T05:13:20.714Z,37.20
2019-04-06T05:16:04.759Z,28.50
2019-04-06T05:18:33.582Z,29.13
2019-04-06T05:21:02.390Z,28.30
2019-04-06T05:23:31.093Z,28.60
2019-04-06T05:25:59.733Z,27.73
2019-04-06T05:28:28.408Z,28.63
2019-04-06T05:30:57.171Z,27.20
2019-04-06T05:33:25.843Z,27.57
2019-04-06T05:35:54.988Z,29.57
2019-04-06T05:38:24.194Z,28.00
2019-04-06T05:40:53.025Z,27.80
2019-04-06T05:43:21.767Z,28.90
2019-04-06T05:45:50.684Z,29.57
2019-04-06T05:48:19.320Z,27.57
2019-04-06T05:50:48.020Z,27.47
2019-04-06T05:53:16.941Z,30.13
2019-04-06T05:55:45.760Z,27.17
2019-04-06T05:58:14.579Z,27.80
2019-04-06T06:00:43.347Z,28.03
2019-04-06T06:03:12.009Z,27.27
2019-04-06T06:05:41.193Z,27.40
2019-04-06T06:08:10.301Z,28.20
2019-04-06T06:10:39.043Z,27.33
2019-04-06T06:13:07.818Z,28.73
2019-04-06T06:15:36.534Z,27.97
2019-04-06T06:18:05.384Z,25.53
2019-04-06T06:20:34.107Z,27.60
2019-04-06T06:23:02.905Z,25.47
2019-04-06T06:25:31.602Z,24.37
2019-04-06T06:28:00.619Z,26.03
2019-04-06T06:30:29.362Z,24.43
2019-04-06T06:32:58.062Z,24.10
2019-04-06T06:35:26.700Z,25.23
2019-04-06T06:37:55.628Z,24.53
2019-04-06T06:40:24.445Z,24.47
2019-04-06T06:42:53.340Z,25.00
2019-04-06T06:45:22.264Z,25.77
2019-04-06T06:47:51.073Z,26.80
2019-04-06T06:50:20.043Z,25.07
2019-04-06T06:52:48.873Z,25.03
2019-04-06T06:55:17.814Z,24.57
2019-04-06T06:57:46.572Z,26.03
2019-04-06T07:00:15.428Z,23.57
2019-04-06T07:02:44.264Z,24.43
2019-04-06T07:05:13.268Z,23.27
2019-04-06T07:07:42.089Z,25.07
2019-04-06T07:10:11.074Z,24.27
2019-04-06T07:12:40.028Z,24.27
2019-04-06T07:15:10.246Z,25.90
2019-04-06T07:17:39.135Z,25.57
2019-04-06T07:20:08.787Z,23.97
2019-04-06T07:22:37.647Z,24.23
2019-04-06T07:25:06.682Z,24.00
2019-04-06T07:27:35.449Z,24.50
2019-04-06T07:30:07.122Z,24.98
2019-04-06T07:32:36.015Z,23.95
2019-04-06T07:35:06.838Z,24.80
2019-04-06T07:37:35.618Z,24.07
2019-04-06T07:40:06.942Z,24.87
2019-04-06T07:42:35.724Z,24.75
2019-04-06T07:45:08.827Z,25.62
2019-04-06T07:47:37.652Z,24.45
2019-04-06T07:50:07.349Z,25.00
2019-04-06T07:52:36.536Z,25.55
2019-04-06T07:55:07.195Z,26.42
2019-04-06T07:57:36.032Z,25.68
2019-04-06T08:00:06.718Z,23.85
2019-04-06T08:02:35.641Z,25.88
2019-04-06T08:05:05.529Z,29.48
2019-04-06T08:07:34.464Z,29.40
2019-04-06T08:10:03.570Z,27.25
2019-04-06T08:12:32.310Z,27.00
2019-04-06T08:15:01.099Z,25.88
2019-04-06T08:17:29.810Z,26.15
2019-04-06T08:19:58.542Z,27.13
2019-04-06T08:22:27.735Z,24.65
2019-04-06T08:24:56.561Z,25.85
2019-04-06T08:27:26.185Z,26.35
2019-04-06T08:29:54.872Z,27.25
2019-04-06T08:32:23.729Z,27.05
2019-04-06T08:34:52.475Z,26.27
2019-04-06T08:37:21.322Z,24.77
2019-04-06T08:39:50.140Z,28.77
2019-04-06T08:42:19.041Z,27.48
2019-04-06T08:44:47.871Z,26.37
2019-04-06T08:47:16.626Z,25.95
2019-04-06T08:49:45.432Z,27.73
2019-04-06T08:52:14.291Z,23.92
2019-04-06T08:54:43.336Z,31.40
2019-04-06T08:57:12.299Z,26.70
2019-04-06T08:59:41.210Z,27.50
2019-04-06T09:02:10.078Z,27.58
2019-04-06T09:04:38.819Z,24.02
2019-04-06T09:07:07.670Z,24.63
2019-04-06T09:09:36.495Z,29.10
2019-04-06T09:12:05.236Z,27.50
2019-04-06T09:14:34.014Z,26.10
2019-04-06T09:17:02.841Z,25.77
2019-04-06T09:19:31.918Z,23.40
2019-04-06T09:22:00.917Z,23.70
2019-04-06T09:24:29.792Z,26.77
2019-04-06T09:26:58.548Z,25.55
2019-04-06T09:29:27.361Z,24.00
2019-04-06T09:31:56.248Z,24.20
2019-04-06T09:34:25.190Z,23.52
2019-04-06T09:36:53.975Z,22.37
2019-04-06T09:39:22.857Z,24.85
2019-04-06T09:41:51.628Z,25.52
2019-04-06T09:44:38.149Z,24.63
2019-04-06T09:47:23.555Z,24.63
2019-04-06T09:50:00.272Z,25.02
2019-04-06T09:52:39.291Z,25.27
2019-04-06T09:55:26.347Z,25.75
2019-04-06T09:58:14.533Z,26.02
2019-04-06T10:00:47.747Z,23.90
2019-04-06T10:03:29.853Z,24.45
2019-04-06T10:06:00.419Z,25.70
2019-04-06T10:08:33.700Z,24.75
2019-04-06T10:11:07.112Z,24.57
2019-04-06T10:13:53.829Z,24.72
2019-04-06T10:16:42.504Z,23.98
2019-04-06T10:19:18.955Z,24.92
2019-04-06T10:22:06.145Z,25.43
2019-04-06T10:24:51.676Z,25.60
2019-04-06T10:27:22.061Z,25.70
2019-04-06T10:29:58.316Z,24.97
2019-04-06T10:32:28.834Z,24.53
2019-04-06T10:35:02.302Z,24.20
2019-04-06T10:37:41.584Z,25.43
2019-04-06T10:40:14.673Z,22.50
2019-04-06T10:42:50.876Z,23.47
2019-04-06T10:45:36.282Z,25.27
2019-04-06T10:48:19.059Z,23.80
2019-04-06T10:50:49.620Z,24.87
2019-04-06T10:53:19.941Z,25.67
2019-04-06T10:56:06.906Z,25.20
2019-04-06T10:58:37.412Z,24.57
2019-04-06T11:01:11.179Z,25.17
2019-04-06T11:03:41.611Z,26.43
2019-04-06T11:06:18.110Z,24.53
2019-04-06T11:09:00.542Z,23.20
2019-04-06T11:11:39.703Z,23.40
2019-04-06T11:14:18.948Z,23.83
2019-04-06T11:16:55.254Z,24.63
2019-04-06T11:19:41.645Z,26.00
2019-04-06T11:22:26.825Z,24.57
2019-04-06T11:24:57.442Z,23.30
2019-04-06T11:27:28.048Z,25.90
2019-04-06T11:30:13.707Z,24.27
2019-04-06T11:32:58.578Z,24.23
2019-04-06T11:35:43.842Z,24.23
2019-04-06T11:38:31.033Z,23.95
2019-04-06T11:41:18.485Z,25.70
2019-04-06T11:43:49.069Z,24.63
2019-04-06T11:46:35.506Z,25.20
2019-04-06T11:49:22.354Z,25.00
2019-04-06T11:51:52.808Z,32.70
2019-04-06T11:54:41.299Z,36.37
2019-04-06T11:57:17.539Z,31.53
2019-04-06T11:59:48.117Z,31.07
2019-04-06T12:02:30.767Z,41.63
2019-04-06T12:05:01.157Z,26.20
2019-04-06T12:07:43.437Z,23.47
2019-04-06T12:10:16.916Z,23.53
2019-04-06T12:13:02.618Z,26.50
2019-04-06T12:15:42.296Z,23.77
2019-04-06T12:18:21.795Z,23.17
2019-04-06T12:21:00.933Z,24.00
2019-04-06T12:23:49.648Z,23.33
2019-04-06T12:26:29.144Z,23.27
2019-04-06T12:29:16.936Z,23.23
2019-04-06T12:32:03.698Z,24.30
2019-04-06T12:34:50.402Z,23.83
2019-04-06T12:37:20.942Z,23.47
2019-04-06T12:40:01.879Z,23.40
2019-04-06T12:42:48.818Z,22.20
2019-04-06T12:45:25.289Z,23.03
2019-04-06T12:47:55.628Z,21.77
2019-04-06T12:50:41.086Z,26.40
2019-04-06T12:53:27.331Z,27.30
2019-04-06T12:56:09.588Z,25.70
2019-04-06T12:58:42.518Z,20.80
2019-04-06T13:01:24.945Z,22.43
2019-04-06T13:04:07.242Z,23.40
2019-04-06T13:06:54.453Z,22.03
2019-04-06T13:09:24.969Z,21.80
2019-04-06T13:11:58.407Z,23.30
2019-04-06T13:14:35.453Z,24.27
2019-04-06T13:17:05.802Z,23.57
2019-04-06T13:19:39.344Z,23.53
2019-04-06T13:22:19.151Z,22.33
2019-04-06T13:25:06.428Z,23.10
2019-04-06T13:27:39.780Z,21.00
2019-04-06T13:30:26.594Z,44.03
2019-04-06T13:33:11.868Z,43.80
2019-04-06T13:35:58.745Z,34.03
2019-04-06T13:38:29.284Z,24.73
2019-04-06T13:40:59.580Z,23.47
2019-04-06T13:43:39.116Z,20.03
2019-04-06T13:46:24.806Z,25.70
2019-04-06T13:49:03.805Z,28.73
2019-04-06T13:51:34.236Z,21.97
2019-04-06T13:54:04.651Z,19.33
2019-04-06T13:56:53.034Z,20.30
2019-04-06T13:59:35.391Z,36.20
2019-04-06T14:02:08.605Z,46.10
2019-04-06T14:04:42.134Z,60.13
2019-04-06T14:07:15.143Z,41.77
2019-04-06T14:09:51.564Z,32.30
2019-04-06T14:12:38.406Z,35.37
2019-04-06T14:15:17.781Z,41.10
2019-04-06T14:18:06.802Z,35.40
2019-04-06T14:20:43.609Z,32.40
2019-04-06T14:23:14.209Z,33.30
2019-04-06T14:25:56.715Z,48.60
2019-04-06T14:28:42.373Z,88.90
2019-04-06T14:31:28.430Z,52.73
2019-04-06T14:33:56.722Z,32.73
2019-04-06T14:36:27.384Z,32.67
2019-04-06T14:39:14.292Z,66.83
2019-04-06T14:41:56.344Z,38.37
2019-04-06T14:44:43.064Z,31.40
2019-04-06T14:47:13.354Z,29.37
2019-04-06T14:49:44.180Z,37.27
2019-04-06T14:52:15.111Z,55.47
2019-04-06T14:54:45.541Z,32.87
2019-04-06T14:57:24.815Z,27.57
2019-04-06T15:00:13.517Z,30.87
2019-04-06T15:02:43.869Z,31.20
2019-04-06T15:05:30.308Z,29.23
2019-04-06T15:08:00.870Z,45.43
2019-04-06T15:10:37.384Z,33.57
2019-04-06T15:13:14.350Z,45.67
2019-04-06T15:15:45.003Z,60.47
2019-04-06T15:18:17.939Z,48.50
2019-04-06T15:21:03.438Z,33.67
2019-04-06T15:23:39.815Z,33.90
2019-04-06T15:26:16.282Z,34.63
2019-04-06T15:28:52.994Z,32.60
2019-04-06T15:31:29.474Z,32.37
2019-04-06T15:34:00.004Z,35.27
2019-04-06T15:36:46.994Z,39.27
2019-04-06T15:39:17.314Z,41.10
2019-04-06T15:41:57.457Z,30.13
2019-04-06T15:44:44.308Z,29.93
2019-04-06T15:47:31.175Z,29.90
2019-04-06T15:50:07.036Z,25.37
2019-04-06T15:52:46.185Z,21.83
2019-04-06T15:55:19.488Z,19.57
2019-04-06T15:57:59.050Z,23.77
2019-04-06T16:00:38.437Z,21.27
2019-04-06T16:03:11.855Z,28.97
2019-04-06T16:05:48.362Z,27.27
2019-04-06T16:08:18.909Z,23.30
2019-04-06T16:11:07.980Z,19.80
2019-04-06T16:13:55.057Z,22.03
2019-04-06T16:16:31.894Z,16.97
2019-04-06T16:19:18.860Z,19.97
2019-04-06T16:21:49.502Z,24.73
2019-04-06T16:24:20.288Z,19.23
2019-04-06T16:27:09.681Z,29.73
2019-04-06T16:29:40.321Z,20.43
2019-04-06T16:32:19.480Z,27.37
2019-04-06T16:34:52.906Z,17.90
2019-04-06T16:37:30.181Z,20.30
2019-04-06T16:40:00.683Z,16.17
2019-04-06T16:42:47.548Z,17.80
2019-04-06T16:45:34.221Z,14.30
2019-04-06T16:48:04.711Z,15.83
2019-04-06T16:50:53.744Z,16.33
2019-04-06T16:53:39.924Z,18.13
2019-04-06T16:56:13.004Z,8.33
2019-04-06T16:58:43.565Z,11.33
2019-04-06T17:01:17.312Z,9.43
2019-04-06T17:04:00.347Z,9.43
2019-04-06T17:06:36.657Z,7.33
2019-04-06T17:09:25.427Z,7.50
2019-04-06T17:12:12.577Z,8.43
2019-04-06T17:14:49.239Z,5.70
2019-04-06T17:17:28.719Z,6.97
2019-04-06T17:20:16.064Z,10.23
2019-04-06T17:23:03.869Z,9.23
2019-04-06T17:25:40.420Z,7.43
2019-04-06T17:28:16.950Z,10.73
2019-04-06T17:30:50.821Z,9.90
2019-04-06T17:33:37.749Z,8.33
2019-04-06T17:36:17.866Z,10.70
2019-04-06T17:39:04.606Z,9.87
2019-04-06T17:41:34.950Z,9.70
2019-04-06T17:44:05.858Z,9.97
2019-04-06T17:46:53.009Z,9.87
2019-04-06T17:49:26.536Z,12.17
2019-04-06T17:52:13.561Z,11.53
2019-04-06T17:54:43.842Z,10.07
2019-04-06T17:57:17.436Z,11.00
2019-04-06T17:59:57.354Z,12.77
2019-04-06T18:02:49.201Z,18.70
2019-04-06T18:05:26.077Z,24.27
2019-04-06T18:08:15.433Z,33.40
2019-04-06T18:10:52.748Z,24.47
2019-04-06T18:13:23.194Z,22.23
2019-04-06T18:15:52.113Z,18.50
2019-04-06T18:18:21.203Z,20.03
2019-04-06T18:20:50.317Z,51.33
2019-04-06T18:23:19.679Z,143.10
2019-04-06T18:25:48.638Z,38.50
2019-04-06T18:28:17.365Z,66.37
2019-04-06T18:30:48.673Z,36.63
2019-04-06T18:33:25.043Z,52.50
2019-04-06T18:35:54.135Z,50.80
2019-04-06T18:38:30.297Z,44.53
2019-04-06T18:40:59.312Z,53.60
2019-04-06T18:43:28.263Z,65.10
2019-04-06T18:45:57.071Z,42.03
2019-04-06T18:48:25.866Z,94.67
2019-04-06T18:50:54.583Z,63.50
2019-04-06T18:53:23.797Z,53.50
2019-04-06T18:55:52.834Z,57.07
2019-04-06T18:58:22.088Z,40.80
2019-04-06T19:00:50.868Z,22.23
2019-04-06T19:03:19.668Z,20.80
2019-04-06T19:05:50.061Z,20.97
2019-04-06T19:08:18.963Z,26.57
2019-04-06T19:10:47.775Z,30.80
2019-04-06T19:13:16.642Z,28.50
2019-04-06T19:15:45.535Z,28.33
2019-04-06T19:18:14.499Z,25.03
2019-04-06T19:20:43.355Z,25.97
2019-04-06T19:23:12.254Z,27.83
2019-04-06T19:25:41.158Z,27.53
2019-04-06T19:28:10.030Z,28.17
2019-04-06T19:30:38.893Z,36.67
2019-04-06T19:33:08.300Z,30.37
2019-04-06T19:35:37.351Z,25.77
2019-04-06T19:38:06.257Z,26.97
2019-04-06T19:40:35.340Z,20.60
2019-04-06T19:43:04.480Z,23.13
2019-04-06T19:45:33.756Z,23.17
2019-04-06T19:48:02.974Z,17.30
2019-04-06T19:50:31.900Z,17.70
2019-04-06T19:53:00.974Z,18.97
2019-04-06T19:55:30.153Z,18.07
2019-04-06T19:57:59.668Z,18.00
2019-04-06T20:00:28.924Z,14.60
2019-04-06T20:02:57.947Z,15.10
2019-04-06T20:05:27.263Z,16.63
2019-04-06T20:07:56.706Z,14.43
2019-04-06T20:10:25.553Z,18.70
2019-04-06T20:12:54.675Z,25.77
2019-04-06T20:15:23.566Z,27.63
2019-04-06T20:17:52.660Z,28.80
2019-04-06T20:20:21.517Z,24.17
2019-04-06T20:22:50.454Z,23.17
2019-04-06T20:25:19.280Z,23.07
2019-04-06T20:27:48.011Z,21.97
2019-04-06T20:30:17.382Z,21.20
2019-04-06T20:32:46.237Z,22.30
2019-04-06T20:35:15.670Z,23.63
2019-04-06T20:37:44.725Z,22.37
2019-04-06T20:40:13.780Z,24.27
2019-04-06T20:42:42.506Z,24.13
2019-04-06T20:45:11.433Z,87.10
2019-04-06T20:47:40.336Z,39.97
2019-04-06T20:50:09.395Z,74.57
2019-04-06T20:52:38.270Z,58.90
2019-04-06T20:55:08.044Z,46.50
2019-04-06T20:57:37.373Z,40.63
2019-04-06T21:00:07.939Z,38.87
2019-04-06T21:02:37.170Z,36.10
2019-04-06T21:05:08.185Z,31.83
2019-04-06T21:07:37.131Z,29.73
2019-04-06T21:10:09.077Z,31.73
2019-04-06T21:12:37.858Z,37.93
2019-04-06T21:15:16.883Z,35.40
2019-04-06T21:17:40.410Z,32.77
2019-04-06T21:20:09.678Z,29.40
2019-04-06T21:22:38.584Z,34.40
2019-04-06T21:25:07.952Z,41.03
2019-04-06T21:27:37.351Z,47.37
2019-04-06T21:30:08.511Z,50.93
2019-04-06T21:32:37.207Z,47.70
2019-04-06T21:35:07.476Z,35.70
2019-04-06T21:37:36.916Z,29.03
2019-04-06T21:40:06.765Z,23.37
2019-04-06T21:42:35.665Z,23.70
2019-04-06T21:45:06.545Z,30.33
2019-04-06T21:47:35.411Z,29.67
2019-04-06T21:50:06.952Z,32.00
2019-04-06T21:52:35.815Z,48.47
2019-04-06T21:55:06.491Z,59.90
2019-04-06T21:57:35.573Z,55.60
2019-04-06T22:00:07.587Z,54.20
2019-04-06T22:02:36.407Z,48.63
2019-04-06T22:05:06.935Z,29.80
2019-04-06T22:07:47.118Z,22.53
2019-04-06T22:10:07.264Z,19.27
2019-04-06T22:12:36.560Z,17.80
2019-04-06T22:15:06.529Z,17.47
2019-04-06T22:17:35.918Z,18.07
2019-04-06T22:20:05.721Z,19.80
2019-04-06T22:22:35.379Z,23.27
2019-04-06T22:25:05.799Z,34.87
2019-04-06T22:27:34.774Z,27.77
2019-04-06T22:30:06.869Z,36.37
2019-04-06T22:32:35.712Z,33.27
2019-04-06T22:35:08.924Z,31.00
2019-04-06T22:37:37.907Z,25.77
2019-04-06T22:40:07.552Z,23.43
2019-04-06T22:42:36.608Z,21.27
2019-04-06T22:45:10.663Z,19.53
2019-04-06T22:47:39.898Z,19.53
2019-04-06T22:50:09.610Z,20.37
2019-04-06T22:52:38.669Z,20.83
2019-04-06T22:55:08.494Z,20.87
2019-04-06T22:57:37.376Z,19.50
2019-04-06T23:00:11.323Z,20.37
2019-04-06T23:02:45.413Z,21.17
2019-04-06T23:05:16.195Z,20.67
2019-04-06T23:07:45.138Z,18.90
2019-04-06T23:10:14.542Z,18.27
2019-04-06T23:12:43.902Z,17.13
2019-04-06T23:15:12.998Z,19.10
2019-04-06T23:17:42.083Z,17.90
2019-04-06T23:20:11.208Z,17.67
2019-04-06T23:22:39.947Z,18.87
2019-04-06T23:25:09.395Z,18.23
2019-04-06T23:27:38.678Z,18.83
2019-04-06T23:30:08.771Z,18.83
2019-04-06T23:32:37.555Z,20.47
2019-04-06T23:35:07.035Z,20.83
2019-04-06T23:37:36.457Z,21.93
2019-04-06T23:40:06.985Z,21.20
2019-04-06T23:42:36.391Z,21.03
2019-04-06T23:45:07.006Z,20.20
2019-04-06T23:47:36.435Z,22.27
2019-04-06T23:50:06.681Z,19.90
2019-04-06T23:52:35.599Z,21.23
2019-04-06T23:55:06.399Z,22.10
2019-04-06T23:57:35.157Z,23.17
